Louisville International Standiford Field Louisville US
ICAO: KSDF
IATA: SDF
Category: Large
Scheduled Services: Yes

Elevation: 501 ft
TransAlt. 18000 ft.

Airport Communications:
APP:123.675
ATIS:118.725
CLNC DEL:126.1
DEP:123.675
GND:121.7
ANG OPS:26.81
TWR:124.2
UNICOM:122.95

KSDF Zoom In..

Runways:

(A) RW 11 length 7250 ft width 150 ft
LOC 109.10 / hdg 114

(B) RW 17L length 8579 ft width 150 ft
ILS 111.95 / hdg 168

(C) RW 17R length 11887 ft width 150 ft
ILS 110.30 / hdg 168

(D) RW 29 length 7250 ft width 150 ft
LOC 109.10 / hdg 294

(E) RW 35L length 11887 ft width 150 ft
ILS 109.35 / hdg 348

(F) RW 35R length 8579 ft width 150 ft
ILS 110.55 / hdg 348

Location; KSDF
Day. 20 / Time. 20.05 Zulu
* Altimeter: 29.81
* Temperature: 25° c. 77°f.
* Wind from: 140° Speed 10 kn.
Dewpoint: 21° c.
Visibility: 10 Statute Miles.
Clouds: Few 900 ft.
Clouds: Scattered 7000 ft.
Clouds: Scattered 11000 ft.
Clouds: Broken 25000 ft.
Conditions: Thunderstorm.Conditions: Cumulonimbus.

KSDF 202005Z 14010KT 10SM FEW009 SCT070 SCT110 BKN250 25/21 A2981 RMK AO2 LTG DSNT ALQDS RAE05 TSE05 TS MOVD E CB DSNT NE-SE-S P0000 T02500211


Wind From 140°
Speed 10 kn.

 
 
jpsmedia.com for Web Design worldairports.se 2018   terms of use